Chicago, IL (60601)

9:12 PM CST on December 05, 2016 (GMT -0600)
New East Side | | Change Station

Elev 0 ft 41.89 °N, 87.62 °W | Updated 5 minutes ago

Overcast
Overcast
33.8 °F
Feels Like 34 °F
N
1.9
Wind Variable Wind from NNE
Gusts 7.5 mph

Today
High -- | Low -- °F
--% Chance of Precip.
Yesterday
High -- | Low -- °F
Precip. -- in
Pressure 30.01 in
Visibility 7.0 miles
Clouds Overcast 600 ft
Windchill 34 °F
Dew Point 31 °F
Humidity 90%
Rainfall Not available.
Snow Depth Not available.
7:03 AM 4:19 PM
Waxing Crescent, 37% visible
METAR KMDW 060253Z 11005KT 7SM OVC006 01/M02 A2998 RMK AO2 SLP163 T00061017 58007
Pressure 30.01 in
Visibility 7.0 miles
Clouds Overcast 600 ft
Windchill 34 °F
Dew Point 31 °F
Humidity 90%
Rainfall Not available.
Snow Depth Not available.
7:03 AM 4:19 PM
Waxing Crescent, 37% visible
METAR KMDW 060253Z 11005KT 7SM OVC006 01/M02 A2998 RMK AO2 SLP163 T00061017 58007

10-Day Weather Forecast

Almanac

Astronomy

Dec. 05, 2016 Rise Set
Actual Time
Civil Twilight
Nautical Twilight
Astronomical Twilight
Moon
Length of Visible Light
Length of Day
Tomorrow will be .
, % of the Moon is Illuminated

Today's Extremes

State Highs State Lows

Community

WunderPhotos

Upload Photos

1,955,916 photos uploaded!

WunderBlog® & News

Nearby

Air Quality

  Air Quality AQ Index Pollutant
Not available.

Snow Depth

Station Depth Elevation

Earthquake Activity

City Distance Mag. Time & Date
Minimum magnitude displayed is 2.5.

Coastal Water Temperatures

Place Temperature

Stations

Nearby Weather Stations

Station Location Temp. Windchill Dew Point Humidity Wind Precip. Elev Updated Type
                   

Watches & Warnings

There are currently no watches in effect.